Time;durP1;ratioP1;P1;durP2;ratioP2;P2;SDS_P1;SDS_P2;PMS_P1;PMS_P2;Temp;Humidity;BMP_temperature;BMP_pressure;BME280_temperature;BME280_humidity;BME280_pressure;Samples;Min_cycle;Max_cycle;Signal;HPM_P1;HPM_P2
2022/11/06 00:00:44;;;;;;;1999.90;999.90;;;11.90;99.90;;;;;;5014885;28;20104;-81
2022/11/06 00:03:10;;;;;;;1999.90;999.90;;;11.90;99.90;;;;;;4996625;28;20108;-80
2022/11/06 00:08:33;;;;;;;1999.90;999.90;;;11.90;99.90;;;;;;5014630;28;20428;-81
2022/11/06 00:10:59;;;;;;;1999.90;999.90;;;11.90;99.90;;;;;;5014196;28;20017;-81
2022/11/06 00:13:25;;;;;;;1999.90;999.90;;;11.80;99.90;;;;;;4996934;28;20026;-81
2022/11/06 00:15:51;;;;;;;1999.90;999.90;;;11.80;99.90;;;;;;4996970;28;20040;-81
2022/11/06 00:18:17;;;;;;;1999.90;999.90;;;11.90;99.90;;;;;;5014769;28;20022;-81
2022/11/06 00:20:42;;;;;;;1999.90;999.90;;;11.80;99.90;;;;;;5014422;28;20086;-80
2022/11/06 00:23:08;;;;;;;1999.90;999.90;;;11.80;99.90;;;;;;5014082;28;20389;-81
2022/11/06 00:25:34;;;;;;;1999.90;999.90;;;11.70;99.90;;;;;;5014464;28;20030;-81
2022/11/06 00:28:00;;;;;;;1999.90;999.90;;;11.70;99.90;;;;;;5014367;28;20034;-81
2022/11/06 00:30:25;;;;;;;1999.90;999.90;;;11.60;99.90;;;;;;5014199;28;20026;-81
2022/11/06 00:32:51;;;;;;;1999.90;999.90;;;11.60;99.90;;;;;;4996109;28;20386;-80
2022/11/06 00:35:16;;;;;;;1999.90;999.90;;;11.50;99.90;;;;;;5014446;28;20022;-81
2022/11/06 00:37:42;;;;;;;1999.90;999.90;;;11.50;99.90;;;;;;5014012;28;20084;-81
2022/11/06 00:40:08;;;;;;;1999.90;999.90;;;11.50;99.90;;;;;;5014229;28;20037;-80
2022/11/06 00:42:34;;;;;;;1999.90;999.90;;;11.40;99.90;;;;;;5014175;28;20026;-83
2022/11/06 00:44:59;;;;;;;1999.90;999.90;;;11.40;99.90;;;;;;5014210;28;20088;-83
2022/11/06 00:47:25;;;;;;;1999.90;999.90;;;11.40;99.90;;;;;;5001546;28;20022;-83
2022/11/06 00:49:50;;;;;;;1999.90;999.90;;;11.40;99.90;;;;;;5014788;28;20084;-83
2022/11/06 00:52:16;;;;;;;1999.90;999.90;;;11.30;99.90;;;;;;5033501;28;20034;-83
2022/11/06 00:54:42;;;;;;;1999.90;999.90;;;11.30;99.90;;;;;;5033525;28;20049;-83
2022/11/06 00:57:07;;;;;;;1999.90;999.90;;;11.30;99.90;;;;;;5033766;28;20029;-83
2022/11/06 00:59:33;;;;;;;1999.90;999.90;;;11.30;99.90;;;;;;5033419;28;20029;-83
2022/11/06 01:01:58;;;;;;;1999.90;999.90;;;11.30;99.90;;;;;;5033365;28;20063;-83
2022/11/06 01:04:24;;;;;;;1999.90;999.90;;;11.30;99.90;;;;;;5015700;28;20117;-83
2022/11/06 01:06:52;;;;;;;1999.90;999.90;;;11.30;99.90;;;;;;5033329;28;20026;-83
2022/11/06 01:09:21;;;;;;;1999.90;999.90;;;11.30;99.90;;;;;;5015603;28;20018;-83
2022/11/06 01:11:50;;;;;;;1999.90;999.90;;;11.30;99.90;;;;;;5033093;28;20083;-82
2022/11/06 01:14:18;;;;;;;1999.90;999.90;;;11.30;99.90;;;;;;5033107;28;20022;-84
2022/11/06 01:16:44;;;;;;;1999.90;999.90;;;11.30;99.90;;;;;;5014337;28;20033;-83
2022/11/06 01:19:11;;;;;;;1999.90;999.90;;;11.30;99.90;;;;;;5033266;28;20057;-83
2022/11/06 01:21:39;;;;;;;1999.90;999.90;;;11.30;99.90;;;;;;5014970;28;20025;-83
2022/11/06 01:24:09;;;;;;;1999.90;999.90;;;11.30;99.90;;;;;;5032826;28;20025;-83
2022/11/06 01:26:36;;;;;;;1999.90;999.90;;;11.30;99.90;;;;;;5033148;28;20022;-83
2022/11/06 01:29:03;;;;;;;1999.90;999.90;;;11.30;99.90;;;;;;5015383;28;20029;-83
2022/11/06 01:31:30;;;;;;;1999.90;999.90;;;11.30;99.90;;;;;;5015259;28;20099;-83
2022/11/06 01:33:58;;;;;;;1999.90;999.90;;;11.30;99.90;;;;;;5032134;28;20052;-83
2022/11/06 01:36:25;;;;;;;1999.90;999.90;;;11.30;99.90;;;;;;5032651;28;20026;-83
2022/11/06 01:38:54;;;;;;;1999.90;999.90;;;11.20;99.90;;;;;;5032646;28;20065;-83
2022/11/06 01:41:26;;;;;;;1999.90;999.90;;;11.20;99.90;;;;;;5015244;28;20052;-83
2022/11/06 01:44:02;;;;;;;1999.90;999.90;;;11.20;99.90;;;;;;5027099;28;20034;-83
2022/11/06 01:46:33;;;;;;;1999.90;999.90;;;11.20;99.90;;;;;;5008326;28;20030;-83
2022/11/06 01:49:02;;;;;;;1999.90;999.90;;;11.20;99.90;;;;;;4998148;28;20018;-83
2022/11/06 01:51:31;;;;;;;1999.90;999.90;;;11.20;99.90;;;;;;5025700;28;20026;-83
2022/11/06 01:53:57;;;;;;;1999.90;999.90;;;11.20;99.90;;;;;;5032396;28;20041;-83
2022/11/06 01:56:23;;;;;;;1999.90;999.90;;;11.20;99.90;;;;;;5032595;28;20061;-83
2022/11/06 01:58:52;;;;;;;1999.90;999.90;;;11.20;99.90;;;;;;5031319;28;20430;-83
2022/11/06 02:01:18;;;;;;;1999.90;999.90;;;11.20;99.90;;;;;;5031950;28;20025;-83
2022/11/06 02:03:52;;;;;;;1999.90;999.90;;;11.20;99.90;;;;;;5032704;28;20384;-83
2022/11/06 02:06:18;;;;;;;1999.90;999.90;;;11.20;99.90;;;;;;5032440;28;20025;-83
2022/11/06 02:08:44;;;;;;;1999.90;999.90;;;11.20;99.90;;;;;;5014272;28;20026;-83
2022/11/06 02:11:10;;;;;;;1999.90;999.90;;;11.20;99.90;;;;;;5032548;28;20433;-83
2022/11/06 02:14:07;;;;;;;1999.90;999.90;;;11.20;99.90;;;;;;5032236;28;20033;-83
2022/11/06 02:16:50;;;;;;;1999.90;999.90;;;11.20;99.90;;;;;;5032339;28;20516;-83
2022/11/06 02:19:40;;;;;;;1999.90;999.90;;;11.20;99.90;;;;;;5032577;28;20028;-83
2022/11/06 02:22:36;;;;;;;1999.90;999.90;;;11.20;99.90;;;;;;5014043;28;20030;-83
2022/11/06 02:25:30;;;;;;;1999.90;999.90;;;11.20;99.90;;;;;;5032372;28;20429;-83
2022/11/06 02:28:03;;;;;;;;;;;11.20;99.90;;;;;;5032283;28;20485;-83
2022/11/06 02:30:40;;;;;;;1999.90;999.90;;;11.20;99.90;;;;;;5014353;28;20004;-83
2022/11/06 02:33:11;;;;;;;1999.90;999.90;;;11.30;99.90;;;;;;5032432;28;20029;-82
2022/11/06 02:35:42;;;;;;;1999.90;999.90;;;11.30;99.90;;;;;;5013861;28;20408;-83
2022/11/06 02:38:15;;;;;;;1999.90;999.90;;;11.30;99.90;;;;;;5013966;28;20025;-83
2022/11/06 02:40:53;;;;;;;1999.90;999.90;;;11.30;99.90;;;;;;5031918;28;20041;-83
2022/11/06 02:43:25;;;;;;;1999.90;999.90;;;11.20;99.90;;;;;;5013333;28;20032;-83
2022/11/06 02:45:55;;;;;;;1999.90;999.90;;;11.20;99.90;;;;;;4994628;28;20026;-83
2022/11/06 02:48:27;;;;;;;1999.90;999.90;;;11.20;99.90;;;;;;5010255;28;20072;-82
2022/11/06 02:50:56;;;;;;;1999.90;999.90;;;11.20;99.90;;;;;;5013954;28;20037;-83
2022/11/06 02:53:24;;;;;;;1999.90;999.90;;;11.20;99.90;;;;;;5010598;28;20042;-83
2022/11/06 02:55:55;;;;;;;1999.90;999.90;;;11.20;99.90;;;;;;5012108;28;20029;-84
2022/11/06 02:58:33;;;;;;;1999.90;999.90;;;11.10;99.90;;;;;;4999037;28;20494;-83
2022/11/06 03:01:07;;;;;;;1999.90;999.90;;;11.10;99.90;;;;;;4992615;28;20038;-82
2022/11/06 03:03:38;;;;;;;1999.90;999.90;;;11.10;99.90;;;;;;4992791;28;20145;-83
2022/11/06 03:06:30;;;;;;;1999.90;999.90;;;11.10;99.90;;;;;;4992698;28;20026;-83
2022/11/06 03:09:21;;;;;;;1999.90;999.90;;;11.10;99.90;;;;;;5000286;28;20046;-83
2022/11/06 03:11:56;;;;;;;1999.90;999.90;;;11.00;99.90;;;;;;5014169;28;20064;-83
2022/11/06 03:14:30;;;;;;;1999.90;999.90;;;11.00;99.90;;;;;;5014387;28;20034;-83
2022/11/06 03:16:59;;;;;;;1999.90;999.90;;;11.00;99.90;;;;;;5014475;28;20026;-83
2022/11/06 03:19:34;;;;;;;1999.90;999.90;;;11.00;99.90;;;;;;5015814;28;20068;-83
2022/11/06 03:22:32;;;;;;;1999.90;999.90;;;10.90;99.90;;;;;;5015148;28;20037;-83
2022/11/06 03:25:25;;;;;;;1999.90;999.90;;;10.90;99.90;;;;;;4997954;28;20464;-83
2022/11/06 03:28:09;;;;;;;1999.90;999.90;;;10.90;99.90;;;;;;4992296;28;20034;-83
2022/11/06 03:30:42;;;;;;;1999.90;999.90;;;10.80;99.90;;;;;;4994562;28;20042;-83
2022/11/06 03:33:12;;;;;;;;;;;10.90;99.90;;;;;;4996391;28;20026;-83
2022/11/06 03:35:46;;;;;;;1999.90;999.90;;;10.80;99.90;;;;;;4995274;28;19906;-84
2022/11/06 03:38:22;;;;;;;1999.90;999.90;;;10.80;99.90;;;;;;4994136;28;20493;-83
2022/11/06 03:41:01;;;;;;;1999.90;999.90;;;10.80;99.90;;;;;;4995051;28;20039;-83
2022/11/06 03:43:30;;;;;;;1999.90;999.90;;;10.80;99.90;;;;;;4995884;28;20482;-83
2022/11/06 03:46:00;;;;;;;1999.90;999.90;;;10.80;99.90;;;;;;4995514;28;20010;-83
2022/11/06 03:48:38;;;;;;;1999.90;999.90;;;10.70;99.90;;;;;;4995295;28;20101;-83
2022/11/06 03:51:18;;;;;;;1999.90;999.90;;;10.70;99.90;;;;;;4995675;28;20502;-82
2022/11/06 03:53:47;;;;;;;1999.90;999.90;;;10.80;99.90;;;;;;5002137;28;20042;-83
2022/11/06 03:56:18;;;;;;;1999.90;999.90;;;10.70;99.90;;;;;;5014932;28;20022;-83
2022/11/06 03:58:46;;;;;;;1999.90;999.90;;;10.70;99.90;;;;;;5014655;28;20028;-83
2022/11/06 04:01:16;;;;;;;1999.90;999.90;;;10.70;99.90;;;;;;4997665;28;20456;-83
2022/11/06 04:04:02;;;;;;;1999.90;999.90;;;10.70;99.90;;;;;;5015011;28;20041;-83
2022/11/06 04:06:31;;;;;;;1999.90;999.90;;;10.70;99.90;;;;;;5014895;28;20424;-83
2022/11/06 04:14:35;;;;;;;1999.90;999.90;;;10.60;99.90;;;;;;5014943;28;20504;-83
2022/11/06 04:17:05;;;;;;;1999.90;999.90;;;10.60;99.90;;;;;;4996501;28;20065;-83
2022/11/06 04:19:31;;;;;;;1999.90;999.90;;;10.60;99.90;;;;;;5014583;28;20033;-83
2022/11/06 04:22:29;;;;;;;1999.90;999.90;;;10.70;99.90;;;;;;4996179;28;20397;-83
2022/11/06 04:28:22;;;;;;;1999.90;999.90;;;10.60;99.90;;;;;;5014043;28;20029;-83
2022/11/06 04:31:15;;;;;;;1999.90;999.90;;;10.60;99.90;;;;;;4996662;28;20654;-83
2022/11/06 04:33:51;;;;;;;;;;;10.60;99.90;;;;;;5014505;28;20238;-82
2022/11/06 04:36:37;;;;;;;1999.90;999.90;;;10.60;99.90;;;;;;5013687;28;20028;-80
2022/11/06 04:39:08;;;;;;;1999.90;999.90;;;10.60;99.90;;;;;;5013897;28;20040;-81
2022/11/06 04:41:53;;;;;;;1999.90;999.90;;;10.70;99.90;;;;;;5014408;28;20029;-80
2022/11/06 04:44:24;;;;;;;1999.90;999.90;;;10.70;99.90;;;;;;4996267;28;20542;-81
2022/11/06 04:46:57;;;;;;;1999.90;999.90;;;10.60;99.90;;;;;;5014072;28;20402;-80
2022/11/06 04:49:26;;;;;;;1999.90;999.90;;;10.60;99.90;;;;;;4996208;28;20026;-80
2022/11/06 04:51:52;;;;;;;1999.90;999.90;;;10.60;99.90;;;;;;5013703;28;20030;-80
2022/11/06 04:54:19;;;;;;;1999.90;999.90;;;10.60;99.90;;;;;;5013479;28;20511;-81
2022/11/06 04:56:44;;;;;;;1999.90;999.90;;;10.50;99.90;;;;;;4996290;28;20030;-80
2022/11/06 04:59:14;;;;;;;1999.90;999.90;;;10.50;99.90;;;;;;5013420;28;20528;-83
2022/11/06 05:01:40;;;;;;;1999.90;999.90;;;10.50;99.90;;;;;;5013755;28;20037;-83
2022/11/06 05:04:05;;;;;;;1999.90;999.90;;;10.50;99.90;;;;;;5013715;28;20097;-84
2022/11/06 05:06:31;;;;;;;1999.90;999.90;;;10.50;99.90;;;;;;5013457;28;20100;-83
2022/11/06 05:08:57;;;;;;;1999.90;999.90;;;10.50;99.90;;;;;;4994859;28;20083;-83
2022/11/06 05:11:23;;;;;;;1999.90;999.90;;;10.40;99.90;;;;;;4995886;28;20030;-83
2022/11/06 05:13:49;;;;;;;1999.90;999.90;;;10.40;99.90;;;;;;5013421;28;20113;-83
2022/11/06 05:16:15;;;;;;;1999.90;999.90;;;10.40;99.90;;;;;;5013532;28;20030;-83
2022/11/06 05:18:40;;;;;;;1999.90;999.90;;;10.40;99.90;;;;;;5013378;28;20033;-83
2022/11/06 05:23:50;;;;;;;1999.90;999.90;;;10.40;99.90;;;;;;5013508;28;20114;-82
2022/11/06 05:26:16;;;;;;;1999.90;999.90;;;10.40;99.90;;;;;;5013292;28;20113;-83
2022/11/06 05:28:42;;;;;;;1999.90;999.90;;;10.40;99.90;;;;;;5024948;28;20071;-83
2022/11/06 05:31:07;;;;;;;1999.90;999.90;;;10.40;99.90;;;;;;5033088;28;20547;-83
2022/11/06 05:33:33;;;;;;;1999.90;999.90;;;10.40;99.90;;;;;;5032907;28;20508;-83
2022/11/06 05:36:05;;;;;;;1999.90;999.90;;;10.40;99.90;;;;;;5032152;28;20040;-83
2022/11/06 05:38:32;;;;;;;1999.90;999.90;;;10.50;99.90;;;;;;5031807;28;20018;-83
2022/11/06 05:40:57;;;;;;;1999.90;999.90;;;10.40;99.90;;;;;;5032763;28;20033;-83
2022/11/06 05:43:23;;;;;;;1999.90;999.90;;;10.40;99.90;;;;;;5031407;28;20384;-83
2022/11/06 05:45:49;;;;;;;1999.90;999.90;;;10.50;99.90;;;;;;4995311;28;20057;-83
2022/11/06 05:48:15;;;;;;;1999.90;999.90;;;10.50;99.90;;;;;;5002435;28;20097;-83
2022/11/06 05:50:40;;;;;;;1999.90;999.90;;;10.50;99.90;;;;;;4993251;28;20504;-83
2022/11/06 05:53:06;;;;;;;1999.90;999.90;;;10.50;99.90;;;;;;4992872;28;20101;-83
2022/11/06 05:55:32;;;;;;;1999.90;999.90;;;10.50;99.90;;;;;;4975907;28;20069;-83
2022/11/06 05:57:58;;;;;;;1999.90;999.90;;;10.50;99.90;;;;;;5001143;28;20026;-83
2022/11/06 06:00:23;;;;;;;1999.90;999.90;;;10.50;99.90;;;;;;5012755;28;20033;-83
2022/11/06 06:02:49;;;;;;;1999.90;999.90;;;10.50;99.90;;;;;;5012877;28;20049;-83
2022/11/06 06:05:15;;;;;;;1999.90;999.90;;;10.50;99.90;;;;;;5012958;28;20385;-83
2022/11/06 06:07:41;;;;;;;1999.90;999.90;;;10.50;99.90;;;;;;4991515;28;20046;-83
2022/11/06 06:10:07;;;;;;;1999.90;999.90;;;10.50;99.90;;;;;;5012483;28;20042;-83
2022/11/06 06:12:33;;;;;;;1999.90;999.90;;;10.50;99.90;;;;;;5012386;28;20040;-83
2022/11/06 06:14:59;;;;;;;1999.90;999.90;;;10.50;99.90;;;;;;5012755;28;20033;-83
2022/11/06 06:17:25;;;;;;;1999.90;999.90;;;10.60;99.90;;;;;;5012983;28;20507;-83
2022/11/06 06:19:50;;;;;;;1999.90;999.90;;;10.60;99.90;;;;;;5012287;28;20030;-82
2022/11/06 06:22:16;;;;;;;1999.90;999.90;;;10.60;99.90;;;;;;4993586;28;20022;-83
2022/11/06 06:24:42;;;;;;;1999.90;999.90;;;10.60;99.90;;;;;;5011475;28;20113;-82
2022/11/06 06:27:07;;;;;;;1999.90;999.90;;;10.60;99.90;;;;;;5012697;28;20393;-84
2022/11/06 06:29:33;;;;;;;1999.90;999.90;;;10.60;99.90;;;;;;5012569;28;20030;-83
2022/11/06 06:31:59;;;;;;;1999.90;999.90;;;10.60;99.90;;;;;;5012400;28;20486;-83
2022/11/06 06:34:24;;;;;;;1999.90;999.90;;;10.50;99.90;;;;;;5012133;28;20040;-83
2022/11/06 06:36:53;;;;;;;1999.90;999.90;;;10.50;99.90;;;;;;4994359;28;20029;-83
2022/11/06 06:39:19;;;;;;;1999.90;999.90;;;10.40;99.90;;;;;;4994190;28;20041;-83
2022/11/06 06:41:48;;;;;;;1999.90;999.90;;;10.30;99.90;;;;;;5012417;28;20026;-83
2022/11/06 06:44:14;;;;;;;1999.90;999.90;;;10.30;99.90;;;;;;4994504;28;20026;-82
2022/11/06 06:46:40;;;;;;;1999.90;999.90;;;10.30;99.90;;;;;;5014722;28;20392;-83
2022/11/06 06:49:06;;;;;;;1999.90;999.90;;;10.30;99.90;;;;;;5017028;28;20037;-82
2022/11/06 06:51:32;;;;;;;1999.90;999.90;;;10.30;99.90;;;;;;5016175;28;20030;-82
2022/11/06 06:53:58;;;;;;;1999.90;999.90;;;10.30;99.90;;;;;;5015797;28;20045;-83
2022/11/06 06:56:24;;;;;;;1999.90;999.90;;;10.40;99.90;;;;;;4998383;28;20574;-83
2022/11/06 06:58:52;;;;;;;1999.90;999.90;;;10.40;99.90;;;;;;5015712;28;20109;-83
2022/11/06 07:01:18;;;;;;;1999.90;999.90;;;10.50;99.90;;;;;;5016356;28;20535;-83
2022/11/06 07:03:43;;;;;;;1999.90;999.90;;;10.50;99.90;;;;;;4998513;28;20022;-83
2022/11/06 07:06:10;;;;;;;1999.90;999.90;;;10.50;99.90;;;;;;5016101;28;20036;-83
2022/11/06 07:08:36;;;;;;;1999.90;999.90;;;10.50;99.90;;;;;;5015606;28;20029;-82
2022/11/06 07:11:05;;;;;;;1999.90;999.90;;;10.50;99.90;;;;;;5015361;28;20030;-82
2022/11/06 07:13:31;;;;;;;1999.90;999.90;;;10.60;99.90;;;;;;4998078;28;20030;-83
2022/11/06 07:15:56;;;;;;;1999.90;999.90;;;10.60;99.90;;;;;;5015232;28;20105;-83
2022/11/06 07:18:23;;;;;;;1999.90;999.90;;;10.60;99.90;;;;;;5015581;28;20056;-82
2022/11/06 07:20:49;;;;;;;1999.90;999.90;;;10.60;99.90;;;;;;5015603;28;20033;-83
2022/11/06 07:23:15;;;;;;;1999.90;999.90;;;10.70;99.90;;;;;;5023677;28;20010;-83
2022/11/06 07:25:40;;;;;;;1999.90;999.90;;;10.70;99.90;;;;;;5034570;28;20053;-82
2022/11/06 07:28:07;;;;;;;1999.90;999.90;;;10.70;99.90;;;;;;5027525;28;20009;-83
2022/11/06 07:30:34;;;;;;;1999.90;999.90;;;10.70;99.90;;;;;;5044131;28;20013;-82
2022/11/06 07:33:01;;;;;;;1999.90;999.90;;;10.80;99.90;;;;;;5061198;28;20014;-83
2022/11/06 07:35:28;;;;;;;1999.90;999.90;;;10.80;99.90;;;;;;5061241;28;20012;-82
2022/11/06 07:37:54;;;;;;;1999.90;999.90;;;10.80;99.90;;;;;;5038590;28;20026;-82
2022/11/06 07:40:19;;;;;;;1999.90;999.90;;;10.80;99.90;;;;;;5035374;28;20160;-83
2022/11/06 07:42:45;;;;;;;1999.90;999.90;;;10.80;99.90;;;;;;5035107;28;20056;-83
2022/11/06 07:45:11;;;;;;;1999.90;999.90;;;10.80;99.90;;;;;;5018775;28;20026;-83
2022/11/06 07:47:36;;;;;;;1999.90;999.90;;;10.80;99.90;;;;;;5015279;28;20030;-82
2022/11/06 07:50:02;;;;;;;1999.90;999.90;;;10.90;99.90;;;;;;5015188;28;20034;-83
2022/11/06 07:52:28;;;;;;;1999.90;999.90;;;10.90;99.90;;;;;;5014832;28;20413;-82
2022/11/06 07:54:53;;;;;;;1999.90;999.90;;;10.90;99.90;;;;;;5014987;28;20461;-83
2022/11/06 07:57:19;;;;;;;1999.90;999.90;;;10.90;99.90;;;;;;5013963;28;20037;-83
2022/11/06 07:59:45;;;;;;;1999.90;999.90;;;10.90;99.90;;;;;;4997346;28;20392;-82
2022/11/06 08:02:11;;;;;;;1999.90;999.90;;;10.90;99.90;;;;;;5014847;28;20026;-82
2022/11/06 08:04:37;;;;;;;1999.90;999.90;;;11.00;99.90;;;;;;5014946;28;20489;-82
2022/11/06 08:07:03;;;;;;;1999.90;999.90;;;11.00;99.90;;;;;;5016613;28;20029;-81
2022/11/06 08:09:29;;;;;;;1999.90;999.90;;;11.00;99.90;;;;;;5034933;28;20022;-82
2022/11/06 08:11:55;;;;;;;1999.90;999.90;;;11.00;99.90;;;;;;5034227;28;20488;-82
2022/11/06 08:14:21;;;;;;;1999.90;999.90;;;11.10;99.90;;;;;;5016562;28;20036;-83
2022/11/06 08:16:46;;;;;;;1999.90;999.90;;;11.10;99.90;;;;;;5034249;28;20029;-83
2022/11/06 08:19:12;;;;;;;1999.90;999.90;;;11.10;99.90;;;;;;5034434;28;20468;-82
2022/11/06 08:21:38;;;;;;;1999.90;999.90;;;11.10;99.90;;;;;;5034090;28;20022;-84
2022/11/06 08:24:04;;;;;;;1999.90;999.90;;;11.00;99.90;;;;;;5034172;28;20036;-82
2022/11/06 08:26:30;;;;;;;1999.90;999.90;;;10.70;99.90;;;;;;5007218;28;20050;-83
2022/11/06 08:28:56;;;;;;;1999.90;999.90;;;10.40;99.90;;;;;;4977280;28;20044;-83
2022/11/06 08:31:22;;;;;;;1999.90;999.90;;;10.40;99.90;;;;;;4994878;28;20109;-83
2022/11/06 08:33:48;;;;;;;1999.90;999.90;;;10.20;99.90;;;;;;4994997;28;20109;-82
2022/11/06 08:36:13;;;;;;;1999.90;999.90;;;10.20;99.90;;;;;;4995070;28;20057;-83
2022/11/06 08:38:39;;;;;;;1999.90;999.90;;;10.10;99.90;;;;;;4976524;28;20042;-83
2022/11/06 08:41:10;;;;;;;1999.90;999.90;;;10.10;99.90;;;;;;4976499;28;20085;-83
2022/11/06 08:43:36;;;;;;;1999.90;999.90;;;10.10;99.90;;;;;;4998053;28;20470;-82
2022/11/06 08:46:07;;;;;;;1999.90;999.90;;;10.10;99.90;;;;;;5013987;28;20104;-82
2022/11/06 08:48:33;;;;;;;1999.90;999.90;;;10.10;99.90;;;;;;5030969;28;20057;-82
2022/11/06 08:50:59;;;;;;;1999.90;999.90;;;10.10;99.90;;;;;;5033721;28;20025;-82
2022/11/06 08:53:24;;;;;;;1999.90;999.90;;;10.10;99.90;;;;;;5033586;28;20426;-82
2022/11/06 08:55:50;;;;;;;1999.90;999.90;;;10.20;99.90;;;;;;5016007;28;20029;-82
2022/11/06 08:58:16;;;;;;;1999.90;999.90;;;10.20;99.90;;;;;;5033405;28;20035;-83
2022/11/06 09:00:42;;;;;;;1999.90;999.90;;;10.20;99.90;;;;;;5033521;28;20159;-82
2022/11/06 09:03:11;;;;;;;1999.90;999.90;;;10.20;99.90;;;;;;5015890;28;20037;-82
2022/11/06 09:05:40;;;;;;;1999.90;999.90;;;10.20;99.90;;;;;;5015951;28;20040;-82
2022/11/06 09:08:06;;;;;;;1999.90;999.90;;;10.20;99.90;;;;;;5033264;28;20226;-83
2022/11/06 09:10:32;;;;;;;1999.90;999.90;;;10.20;99.90;;;;;;5033149;28;20108;-82
2022/11/06 09:12:58;;;;;;;1999.90;999.90;;;10.30;99.90;;;;;;5033646;28;20485;-82
2022/11/06 09:15:24;;;;;;;1999.90;999.90;;;10.40;99.90;;;;;;5033474;28;20022;-82
2022/11/06 09:17:50;;;;;;;1999.90;999.90;;;10.30;99.90;;;;;;5015842;28;20485;-82
2022/11/06 09:20:18;;;;;;;1999.90;999.90;;;10.40;99.90;;;;;;5033108;28;20059;-83
2022/11/06 09:22:45;;;;;;;1999.90;999.90;;;10.50;99.90;;;;;;5032774;28;20388;-83
2022/11/06 09:25:11;;;;;;;1999.90;999.90;;;10.50;99.90;;;;;;5027942;28;20017;-83
2022/11/06 09:27:49;;;;;;;1999.90;999.90;;;10.50;99.90;;;;;;5002918;28;20014;-82
2022/11/06 09:30:17;;;;;;;1999.90;999.90;;;10.60;99.90;;;;;;5013073;28;20073;-83
2022/11/06 09:32:53;;;;;;;1999.90;999.90;;;10.60;99.90;;;;;;5013214;28;20029;-82
2022/11/06 09:35:21;;;;;;;1999.90;999.90;;;10.60;99.90;;;;;;4995567;28;20493;-83
2022/11/06 09:37:47;;;;;;;1999.90;999.90;;;10.60;99.90;;;;;;5013257;28;20041;-83
2022/11/06 09:40:20;;;;;;;1999.90;999.90;;;10.70;99.90;;;;;;5012574;28;20413;-83
2022/11/06 09:42:58;;;;;;;1999.90;999.90;;;10.80;99.90;;;;;;5012937;28;20017;-83
2022/11/06 09:45:27;;;;;;;1999.90;999.90;;;10.80;99.90;;;;;;5013240;28;20021;-83
2022/11/06 09:48:00;;;;;;;1999.90;999.90;;;10.90;99.90;;;;;;5030360;28;20503;-82
2022/11/06 09:50:30;;;;;;;1999.90;999.90;;;10.90;99.90;;;;;;5032603;28;20484;-82
2022/11/06 09:53:01;;;;;;;1999.90;999.90;;;11.00;99.90;;;;;;5032182;28;20049;-82
2022/11/06 09:55:36;;;;;;;1999.90;999.90;;;11.00;99.90;;;;;;5032767;28;20033;-82
2022/11/06 09:58:10;;;;;;;1999.90;999.90;;;11.10;99.90;;;;;;5014574;28;20029;-83
2022/11/06 10:00:37;;;;;;;1999.90;999.90;;;11.10;99.90;;;;;;5032573;28;20041;-82
2022/11/06 10:03:07;;;;;;;1999.90;999.90;;;11.20;99.90;;;;;;5014832;28;20029;-83
2022/11/06 10:05:35;;;;;;;1999.90;999.90;;;11.30;99.90;;;;;;5032757;28;20018;-83
2022/11/06 10:08:06;;;;;;;1999.90;999.90;;;11.40;99.90;;;;;;5014124;28;20075;-82
2022/11/06 10:10:44;;;;;;;1999.90;999.90;;;11.50;99.90;;;;;;5032310;28;20366;-82
2022/11/06 10:13:34;;;;;;;1999.90;999.90;;;11.50;99.90;;;;;;5014333;28;20029;-82
2022/11/06 10:16:37;;;;;;;1999.90;999.90;;;11.60;99.90;;;;;;5009267;28;20022;-82
2022/11/06 10:19:08;;;;;;;1999.90;999.90;;;11.80;99.90;;;;;;5012436;28;20408;-83
2022/11/06 10:21:52;;;;;;;1999.90;999.90;;;12.00;99.90;;;;;;5011646;28;20088;-82
2022/11/06 10:24:53;;;;;;;1999.90;999.90;;;12.90;99.90;;;;;;5012348;28;20072;-83
2022/11/06 10:27:26;;;;;;;1999.90;999.90;;;14.20;99.90;;;;;;4981765;28;20037;-83
2022/11/06 10:30:11;;;;;;;1999.90;999.90;;;14.80;99.90;;;;;;4995328;28;20034;-83
2022/11/06 10:33:04;;;;;;;1999.90;999.90;;;15.00;99.90;;;;;;5012330;28;20441;-84
2022/11/06 10:35:39;;;;;;;1999.90;999.90;;;15.10;99.90;;;;;;5012602;28;20072;-83
2022/11/06 10:38:46;;;;;;;1999.90;999.90;;;15.30;99.90;;;;;;4994494;28;20034;-83
2022/11/06 10:41:32;;;;;;;1999.90;999.90;;;15.50;99.90;;;;;;4934616;29;20050;-83
2022/11/06 10:44:01;;;;;;;1999.90;999.90;;;15.60;99.90;;;;;;4952009;29;20023;-84
2022/11/06 10:46:42;;;;;;;1999.90;999.90;;;15.70;99.90;;;;;;4935653;29;20130;-83
2022/11/06 10:49:24;;;;;;;1999.90;999.90;;;15.80;99.90;;;;;;4951905;29;20091;-83
2022/11/06 10:51:58;;;;;;;1999.90;999.90;;;16.00;99.90;;;;;;4951799;29;20039;-82
2022/11/06 10:54:49;;;;;;;1999.90;999.90;;;15.80;99.90;;;;;;4951692;29;20047;-83
2022/11/06 10:57:19;;;;;;;1999.90;999.90;;;15.80;99.90;;;;;;4951747;29;20039;-83
2022/11/06 10:59:47;;;;;;;1999.90;999.90;;;15.70;99.90;;;;;;4935824;28;20078;-83
2022/11/06 11:02:28;;;;;;;1999.90;999.90;;;15.80;99.90;;;;;;4935655;28;20438;-83
2022/11/06 11:04:54;;;;;;;1999.90;999.90;;;15.80;99.90;;;;;;4951723;29;20032;-83
2022/11/06 11:07:20;;;;;;;1999.90;999.90;;;15.90;99.90;;;;;;4948599;29;20039;-84
2022/11/06 11:09:48;;;;;;;1999.90;999.90;;;16.00;99.90;;;;;;4935706;29;20086;-83
2022/11/06 11:12:24;;;;;;;1999.90;999.90;;;16.10;99.90;;;;;;4964965;28;20268;-83
2022/11/06 11:15:13;;;;;;;1999.90;999.90;;;16.10;99.90;;;;;;4973006;28;20089;-83
2022/11/06 11:17:40;;;;;;;1999.90;999.90;;;16.10;99.90;;;;;;4973426;28;20034;-83
2022/11/06 11:20:33;;;;;;;1999.90;999.90;;;16.10;99.90;;;;;;4973066;28;20102;-83
2022/11/06 11:23:13;;;;;;;1999.90;999.90;;;16.10;99.90;;;;;;4970279;28;20046;-83
2022/11/06 11:25:42;;;;;;;1999.90;999.90;;;16.10;99.90;;;;;;4977089;28;20278;-83
2022/11/06 11:28:30;;;;;;;1999.90;999.90;;;16.20;99.90;;;;;;4992386;28;20093;-82
2022/11/06 11:31:11;;;;;;;1999.90;999.90;;;16.40;99.90;;;;;;4991252;28;20037;-83
2022/11/06 11:33:39;;;;;;;1999.90;999.90;;;16.40;99.90;;;;;;4996170;28;20030;-83
2022/11/06 11:36:07;;;;;;;1999.90;999.90;;;16.50;99.90;;;;;;4994608;28;20031;-81
2022/11/06 11:38:36;;;;;;;1999.90;999.90;;;16.50;99.90;;;;;;4995247;28;20037;-81
2022/11/06 11:41:08;;;;;;;1999.90;999.90;;;16.50;99.90;;;;;;4994321;28;20441;-82
2022/11/06 11:43:34;;;;;;;1999.90;999.90;;;16.70;99.90;;;;;;4995251;28;20394;-82
2022/11/06 11:46:08;;;;;;;1999.90;999.90;;;16.60;99.90;;;;;;4995778;28;20023;-82
2022/11/06 11:48:44;;;;;;;1999.90;999.90;;;16.60;99.90;;;;;;4995558;28;20030;-82
2022/11/06 11:51:30;;;;;;;1999.90;999.90;;;16.50;99.90;;;;;;4995559;28;20037;-81
2022/11/06 11:54:14;;;;;;;1999.90;999.90;;;16.60;99.90;;;;;;5003633;28;20050;-82
2022/11/06 11:57:02;;;;;;;1999.90;999.90;;;16.50;99.90;;;;;;5015027;28;20099;-83
2022/11/06 11:59:59;;;;;;;1999.90;999.90;;;16.50;99.90;;;;;;4995391;28;20022;-82
2022/11/06 12:02:39;;;;;;;1999.90;999.90;;;16.30;99.90;;;;;;4995618;28;20030;-81
2022/11/06 12:05:11;;;;;;;1999.90;999.90;;;16.20;99.90;;;;;;4995935;28;20073;-82
2022/11/06 12:07:42;;;;;;;1999.90;999.90;;;16.20;99.90;;;;;;5011231;28;20060;-82
2022/11/06 12:10:29;;;;;;;1999.90;999.90;;;16.50;99.90;;;;;;5014755;28;20056;-82
2022/11/06 12:12:56;;;;;;;1999.90;999.90;;;16.90;99.90;;;;;;5014564;28;20026;-82
2022/11/06 12:15:36;;;;;;;1999.90;999.90;;;16.90;99.90;;;;;;5014836;28;20029;-82
2022/11/06 12:18:10;;;;;;;1999.90;999.90;;;16.80;99.90;;;;;;5014351;28;20515;-83
2022/11/06 12:20:50;;;;;;;1999.90;999.90;;;16.70;99.90;;;;;;5014152;28;20098;-83
2022/11/06 12:23:26;;;;;;;1999.90;999.90;;;16.90;99.90;;;;;;5014035;28;20061;-83
2022/11/06 12:26:33;;;;;;;1999.90;999.90;;;16.90;99.90;;;;;;4993298;28;20549;-83
2022/11/06 12:29:31;;;;;;;1999.90;999.90;;;17.00;99.90;;;;;;4994490;28;20149;-83
2022/11/06 12:32:12;;;;;;;1999.90;999.90;;;17.10;99.90;;;;;;4943598;28;20026;-83
2022/11/06 12:35:12;;;;;;;1999.90;999.90;;;17.20;99.90;;;;;;4994732;28;20064;-83